Time;durP1;ratioP1;P1;durP2;ratioP2;P2;SDS_P1;SDS_P2;PMS_P1;PMS_P2;Temp;Humidity;BMP_temperature;BMP_pressure;BME280_temperature;BME280_humidity;BME280_pressure;Samples;Min_cycle;Max_cycle;Signal;HPM_P1;HPM_P2
2023/08/27 00:00:37;;;;;;;7.75;6.95;;;14.20;99.90;;;;;;5078421;28;20119;-78
2023/08/27 00:03:03;;;;;;;7.43;6.72;;;14.20;99.90;;;;;;5065089;28;20043;-78
2023/08/27 00:05:29;;;;;;;8.93;6.85;;;14.20;99.90;;;;;;5074671;28;20051;-78
2023/08/27 00:07:54;;;;;;;7.55;6.68;;;14.20;99.90;;;;;;5057365;28;20047;-77
2023/08/27 00:10:20;;;;;;;7.53;6.82;;;14.10;99.90;;;;;;5062549;28;20070;-78
2023/08/27 00:12:46;;;;;;;7.40;6.70;;;14.10;99.90;;;;;;5066287;28;20040;-78
2023/08/27 00:15:12;;;;;;;8.15;7.35;;;14.10;99.90;;;;;;5088409;28;20146;-79
2023/08/27 00:17:37;;;;;;;7.88;6.95;;;14.10;99.90;;;;;;5065667;28;20036;-79
2023/08/27 00:20:10;;;;;;;7.57;6.78;;;14.10;99.90;;;;;;5062625;28;20477;-78
2023/08/27 00:22:39;;;;;;;8.38;7.22;;;14.10;99.90;;;;;;5065310;28;20353;-79
2023/08/27 00:25:05;;;;;;;9.00;7.38;;;14.10;99.90;;;;;;5066087;28;20123;-78
2023/08/27 00:27:30;;;;;;;8.40;7.22;;;14.00;99.90;;;;;;5059019;28;20130;-78
2023/08/27 00:29:56;;;;;;;10.23;7.53;;;14.00;99.90;;;;;;5053860;28;20122;-78
2023/08/27 00:32:21;;;;;;;7.30;6.57;;;14.00;99.90;;;;;;5068745;28;20033;-78
2023/08/27 00:34:47;;;;;;;12.20;6.75;;;14.00;99.90;;;;;;5066186;28;20097;-78
2023/08/27 00:37:12;;;;;;;19.02;6.90;;;14.00;99.90;;;;;;5066102;28;20028;-79
2023/08/27 00:39:38;;;;;;;9.50;6.72;;;14.00;99.90;;;;;;5068871;28;20572;-78
2023/08/27 00:42:05;;;;;;;8.05;6.82;;;14.00;99.90;;;;;;5066090;28;20075;-79
2023/08/27 00:44:31;;;;;;;6.97;6.28;;;14.00;99.90;;;;;;5074867;28;20419;-79
2023/08/27 00:46:57;;;;;;;8.55;7.28;;;14.00;99.90;;;;;;5068886;28;20036;-78
2023/08/27 00:49:23;;;;;;;9.60;7.35;;;14.00;99.90;;;;;;5069420;28;20467;-78
2023/08/27 00:51:49;;;;;;;7.35;6.63;;;14.00;99.90;;;;;;5067665;28;20067;-78
2023/08/27 00:54:15;;;;;;;7.80;7.00;;;13.90;99.90;;;;;;5065144;28;20052;-79
2023/08/27 00:56:44;;;;;;;8.10;7.30;;;13.90;99.90;;;;;;5063186;28;20040;-79
2023/08/27 00:59:11;;;;;;;9.80;8.23;;;13.90;99.90;;;;;;5069415;28;20036;-79
2023/08/27 01:01:37;;;;;;;7.65;6.95;;;13.90;99.90;;;;;;5072066;28;20051;-79
2023/08/27 01:04:04;;;;;;;7.57;6.88;;;13.90;99.90;;;;;;5068262;28;20047;-79
2023/08/27 01:06:30;;;;;;;7.47;6.78;;;13.90;99.90;;;;;;5054472;28;20127;-79
2023/08/27 01:09:25;;;;;;;7.68;6.72;;;13.90;99.90;;;;;;5062942;28;20123;-78
2023/08/27 01:12:17;;;;;;;7.20;6.50;;;13.90;99.90;;;;;;5062323;28;20048;-78
2023/08/27 01:14:45;;;;;;;10.18;7.50;;;13.90;99.90;;;;;;5070487;28;20036;-77
2023/08/27 01:17:15;;;;;;;9.23;6.82;;;13.90;99.90;;;;;;5064441;28;20564;-78
2023/08/27 01:19:41;;;;;;;8.90;7.03;;;13.90;99.90;;;;;;5071967;28;20040;-78
2023/08/27 01:22:06;;;;;;;7.75;6.88;;;13.90;99.90;;;;;;5061695;28;20040;-78
2023/08/27 01:24:32;;;;;;;8.15;6.68;;;13.90;99.90;;;;;;5059214;28;20093;-78
2023/08/27 01:27:05;;;;;;;7.18;6.47;;;13.90;99.90;;;;;;5070730;28;20123;-78
2023/08/27 01:29:51;;;;;;;10.02;7.38;;;13.90;99.90;;;;;;5062618;28;20048;-78
2023/08/27 01:32:36;;;;;;;7.57;6.88;;;13.90;99.90;;;;;;5061066;28;20052;-78
2023/08/27 01:35:04;;;;;;;7.97;7.05;;;13.90;99.90;;;;;;5061849;28;20522;-79
2023/08/27 01:37:29;;;;;;;8.02;6.93;;;13.80;99.90;;;;;;5063897;28;20123;-79
2023/08/27 01:40:00;;;;;;;7.80;7.00;;;13.80;99.90;;;;;;5070457;28;20123;-78
2023/08/27 01:42:27;;;;;;;7.40;6.70;;;13.80;99.90;;;;;;5061237;28;20144;-78
2023/08/27 01:44:55;;;;;;;9.50;7.63;;;13.80;99.90;;;;;;5067747;28;20040;-78
2023/08/27 01:47:21;;;;;;;8.40;7.53;;;13.80;99.90;;;;;;5068271;28;20044;-80
2023/08/27 01:49:49;;;;;;;11.10;6.88;;;13.80;99.90;;;;;;5066596;28;20064;-78
2023/08/27 01:52:14;;;;;;;8.65;6.80;;;13.80;99.90;;;;;;5064619;28;20185;-78
2023/08/27 01:54:40;;;;;;;7.35;6.28;;;13.70;99.90;;;;;;5065231;28;20543;-78
2023/08/27 01:57:05;;;;;;;7.30;6.55;;;13.70;99.90;;;;;;5061728;28;20109;-78
2023/08/27 01:59:31;;;;;;;9.88;7.03;;;13.70;99.90;;;;;;5073716;28;20070;-78
2023/08/27 02:01:56;;;;;;;6.95;5.93;;;13.70;99.90;;;;;;5073937;28;20027;-78
2023/08/27 02:04:22;;;;;;;7.82;6.30;;;13.60;99.90;;;;;;5080990;28;20116;-78
2023/08/27 02:06:47;;;;;;;7.07;6.38;;;13.60;99.90;;;;;;5071460;28;20526;-79
2023/08/27 02:09:13;;;;;;;8.90;6.57;;;13.60;99.90;;;;;;5060682;28;20032;-78
2023/08/27 02:11:39;;;;;;;8.20;6.80;;;13.60;99.90;;;;;;5063575;28;20039;-78
2023/08/27 02:14:04;;;;;;;10.32;7.43;;;13.60;99.90;;;;;;5068545;28;20407;-78
2023/08/27 02:16:32;;;;;;;8.60;6.80;;;13.60;99.90;;;;;;5066470;28;20044;-78
2023/08/27 02:18:57;;;;;;;7.20;6.50;;;13.60;99.90;;;;;;5074929;28;20047;-78
2023/08/27 02:21:23;;;;;;;8.27;6.65;;;13.60;99.90;;;;;;5068377;28;20036;-78
2023/08/27 02:23:48;;;;;;;9.40;6.75;;;13.50;99.90;;;;;;5072343;28;20111;-78
2023/08/27 02:26:14;;;;;;;8.20;6.22;;;13.50;99.90;;;;;;5063719;28;20128;-79
2023/08/27 02:28:40;;;;;;;7.07;6.28;;;13.50;99.90;;;;;;5070122;28;20119;-78
2023/08/27 02:31:08;;;;;;;9.93;6.90;;;13.50;99.90;;;;;;5065539;28;20648;-78
2023/08/27 02:33:33;;;;;;;7.45;6.20;;;13.50;99.90;;;;;;5071978;28;20120;-78
2023/08/27 02:35:59;;;;;;;8.23;6.90;;;13.50;99.90;;;;;;5058569;28;20115;-78
2023/08/27 02:38:25;;;;;;;8.57;6.32;;;13.50;99.90;;;;;;5065241;28;20039;-78
2023/08/27 02:40:50;;;;;;;7.38;6.43;;;13.50;99.90;;;;;;5064211;28;20050;-78
2023/08/27 02:43:16;;;;;;;7.95;6.53;;;13.40;99.90;;;;;;5069087;28;20101;-78
2023/08/27 02:45:41;;;;;;;8.07;7.10;;;13.40;99.90;;;;;;5050914;28;20438;-77
2023/08/27 02:48:07;;;;;;;6.95;6.05;;;13.40;99.90;;;;;;5062810;28;20490;-78
2023/08/27 02:50:33;;;;;;;7.82;6.85;;;13.40;99.90;;;;;;5066092;28;20040;-78
2023/08/27 02:52:58;;;;;;;7.07;6.28;;;13.40;99.90;;;;;;5057425;28;20093;-77
2023/08/27 02:55:27;;;;;;;8.57;6.93;;;13.40;99.90;;;;;;5083632;28;20035;-78
2023/08/27 02:57:53;;;;;;;7.43;6.72;;;13.30;99.90;;;;;;5066672;28;20032;-79
2023/08/27 03:00:18;;;;;;;9.55;7.32;;;13.30;99.90;;;;;;5068003;28;20039;-78
2023/08/27 03:02:44;;;;;;;8.00;6.93;;;13.30;99.90;;;;;;5067019;28;20048;-78
2023/08/27 03:05:09;;;;;;;8.18;6.70;;;13.30;99.90;;;;;;5080395;28;20043;-78
2023/08/27 03:07:35;;;;;;;8.00;6.15;;;13.30;99.90;;;;;;5078280;28;20039;-77
2023/08/27 03:10:00;;;;;;;8.57;7.22;;;13.30;99.90;;;;;;5067855;28;20055;-77
2023/08/27 03:12:26;;;;;;;10.40;7.47;;;13.20;99.90;;;;;;5066196;28;20032;-77
2023/08/27 03:14:52;;;;;;;10.68;7.97;;;13.20;99.90;;;;;;5063772;28;20040;-77
2023/08/27 03:17:18;;;;;;;8.05;7.20;;;13.20;99.90;;;;;;5073661;28;20059;-77
2023/08/27 03:19:43;;;;;;;8.55;7.22;;;13.20;99.90;;;;;;5074448;28;20044;-78
2023/08/27 03:22:09;;;;;;;8.23;7.32;;;13.20;99.90;;;;;;5066694;28;20035;-78
2023/08/27 03:24:34;;;;;;;7.63;6.93;;;13.20;99.90;;;;;;5073644;28;20047;-78
2023/08/27 03:27:00;;;;;;;10.00;7.72;;;13.20;99.90;;;;;;5066042;28;20047;-79
2023/08/27 03:29:27;;;;;;;10.05;8.02;;;13.20;99.90;;;;;;5067581;28;20412;-78
2023/08/27 03:31:53;;;;;;;8.73;7.82;;;13.20;99.90;;;;;;5065729;28;20050;-78
2023/08/27 03:34:18;;;;;;;10.50;8.07;;;13.20;99.90;;;;;;5065128;28;20032;-78
2023/08/27 03:36:44;;;;;;;8.20;7.40;;;13.20;99.90;;;;;;5061505;28;20130;-77
2023/08/27 03:39:10;;;;;;;9.10;7.95;;;13.20;99.90;;;;;;5062824;28;20117;-78
2023/08/27 03:41:36;;;;;;;8.57;7.43;;;13.20;99.90;;;;;;5062927;28;20045;-78
2023/08/27 03:44:01;;;;;;;8.35;7.40;;;13.20;99.90;;;;;;5069768;28;20051;-78
2023/08/27 03:46:27;;;;;;;9.35;8.40;;;13.20;99.90;;;;;;5073934;28;20465;-77
2023/08/27 03:48:52;;;;;;;8.73;7.93;;;13.30;99.90;;;;;;5065257;28;20074;-78
2023/08/27 03:51:18;;;;;;;8.88;7.97;;;13.30;99.90;;;;;;5066838;28;20467;-77
2023/08/27 03:53:43;;;;;;;8.45;7.63;;;13.30;99.90;;;;;;5073703;28;20475;-78
2023/08/27 03:56:09;;;;;;;9.48;8.10;;;13.30;99.90;;;;;;5062871;28;20040;-77
2023/08/27 03:58:34;;;;;;;8.70;7.60;;;13.30;99.90;;;;;;5072066;28;20437;-78
2023/08/27 04:01:00;;;;;;;9.38;8.38;;;13.30;99.90;;;;;;5065185;28;20434;-78
2023/08/27 04:03:26;;;;;;;8.23;7.43;;;13.30;99.90;;;;;;5068645;28;20044;-78
2023/08/27 04:05:51;;;;;;;10.25;8.23;;;13.30;99.90;;;;;;5079116;28;20043;-77
2023/08/27 04:08:17;;;;;;;8.80;7.90;;;13.30;99.90;;;;;;5068660;28;20040;-78
2023/08/27 04:10:52;;;;;;;8.93;8.02;;;13.30;99.90;;;;;;5070955;28;20036;-78
2023/08/27 04:13:18;;;;;;;9.63;7.93;;;13.40;99.90;;;;;;5082807;28;20043;-78
2023/08/27 04:15:57;;;;;;;9.05;7.97;;;13.40;99.90;;;;;;5065744;28;20044;-79
2023/08/27 04:18:22;;;;;;;8.82;8.02;;;13.30;99.90;;;;;;5064193;28;20436;-78
2023/08/27 04:20:49;;;;;;;10.20;8.43;;;13.30;99.90;;;;;;5065874;28;20039;-78
2023/08/27 04:23:14;;;;;;;9.73;7.72;;;13.30;99.90;;;;;;5059320;28;20044;-78
2023/08/27 04:25:43;;;;;;;10.70;7.80;;;13.30;99.90;;;;;;5061467;28;20507;-78
2023/08/27 04:28:08;;;;;;;9.15;8.25;;;13.30;99.90;;;;;;5063093;28;20045;-78
2023/08/27 04:30:34;;;;;;;10.25;8.80;;;13.30;99.90;;;;;;5067867;28;20114;-78
2023/08/27 04:33:00;;;;;;;9.45;8.13;;;13.30;99.90;;;;;;5061808;28;20464;-78
2023/08/27 04:35:25;;;;;;;9.10;8.20;;;13.30;99.90;;;;;;5065113;28;20033;-78
2023/08/27 04:37:51;;;;;;;9.30;7.55;;;13.30;99.90;;;;;;5056842;28;20122;-78
2023/08/27 04:40:16;;;;;;;10.63;8.15;;;13.30;99.90;;;;;;5065393;28;20407;-78
2023/08/27 04:42:42;;;;;;;9.20;7.80;;;13.20;99.90;;;;;;5073819;28;20055;-78
2023/08/27 04:45:09;;;;;;;9.57;8.57;;;13.20;99.90;;;;;;5065624;28;20047;-78
2023/08/27 04:47:34;;;;;;;9.18;7.40;;;13.20;99.90;;;;;;5067758;28;20051;-79
2023/08/27 04:50:00;;;;;;;11.98;8.13;;;13.20;99.90;;;;;;5067592;28;20503;-78
2023/08/27 04:52:25;;;;;;;10.32;8.10;;;13.20;99.90;;;;;;5062722;28;20052;-78
2023/08/27 04:54:51;;;;;;;8.57;7.78;;;13.10;99.90;;;;;;5063745;28;20036;-78
2023/08/27 04:57:17;;;;;;;10.13;8.43;;;13.10;99.90;;;;;;5065036;28;20031;-78
2023/08/27 04:59:42;;;;;;;9.52;8.63;;;13.10;99.90;;;;;;5057626;28;20042;-78
2023/08/27 05:02:08;;;;;;;8.60;7.78;;;13.10;99.90;;;;;;5074838;28;20451;-78
2023/08/27 05:04:33;;;;;;;11.77;7.80;;;13.10;99.90;;;;;;5076568;28;20042;-78
2023/08/27 05:06:59;;;;;;;9.10;7.72;;;13.10;99.90;;;;;;5074129;28;20431;-78
2023/08/27 05:09:26;;;;;;;9.30;7.18;;;13.20;99.90;;;;;;5073000;28;20063;-78
2023/08/27 05:11:52;;;;;;;9.75;8.13;;;13.20;99.90;;;;;;5064231;28;20036;-78
2023/08/27 05:14:17;;;;;;;11.88;8.60;;;13.20;99.90;;;;;;5070155;28;20471;-78
2023/08/27 05:16:43;;;;;;;9.98;7.28;;;13.20;99.90;;;;;;5071666;28;20027;-78
2023/08/27 05:19:09;;;;;;;10.95;7.60;;;13.20;99.90;;;;;;5073001;28;20043;-79
2023/08/27 05:21:35;;;;;;;8.50;7.45;;;13.20;99.90;;;;;;5071248;28;20098;-78
2023/08/27 05:24:00;;;;;;;8.35;7.50;;;13.20;99.90;;;;;;5059933;28;20767;-78
2023/08/27 05:26:26;;;;;;;9.55;7.70;;;13.20;99.90;;;;;;5075744;28;20123;-78
2023/08/27 05:28:51;;;;;;;10.68;7.93;;;13.30;99.90;;;;;;5059612;28;20098;-78
2023/08/27 05:31:17;;;;;;;9.98;8.05;;;13.30;99.90;;;;;;5063924;28;20043;-78
2023/08/27 05:33:43;;;;;;;7.65;6.85;;;13.40;99.90;;;;;;5066431;28;20109;-78
2023/08/27 05:36:09;;;;;;;8.98;8.07;;;13.50;99.90;;;;;;5064053;28;20043;-79
2023/08/27 05:38:34;;;;;;;8.85;7.70;;;13.60;99.90;;;;;;5080738;28;20032;-78
2023/08/27 05:41:01;;;;;;;9.35;8.35;;;13.70;99.90;;;;;;5074932;28;20025;-77
2023/08/27 05:43:26;;;;;;;8.73;7.80;;;13.90;99.90;;;;;;5063338;28;20082;-78
2023/08/27 05:45:52;;;;;;;8.90;8.00;;;14.00;99.90;;;;;;5058932;28;20132;-78
2023/08/27 05:48:17;;;;;;;7.90;7.10;;;14.10;99.90;;;;;;5062348;28;20037;-78
2023/08/27 05:50:44;;;;;;;9.93;7.70;;;14.20;99.90;;;;;;5057934;28;20048;-78
2023/08/27 05:53:11;;;;;;;8.70;7.45;;;14.20;99.90;;;;;;5060303;28;20052;-78
2023/08/27 05:55:36;;;;;;;8.35;7.00;;;14.10;99.90;;;;;;5073836;28;20036;-79
2023/08/27 05:58:03;;;;;;;8.77;7.05;;;14.00;99.90;;;;;;5069697;28;20501;-78
2023/08/27 06:00:29;;;;;;;7.72;6.68;;;14.10;99.90;;;;;;5071605;28;20040;-78
2023/08/27 06:02:54;;;;;;;10.80;7.40;;;14.00;99.90;;;;;;5060274;28;20071;-78
2023/08/27 06:05:20;;;;;;;9.40;7.25;;;14.00;99.90;;;;;;5066535;28;20038;-78
2023/08/27 06:07:45;;;;;;;8.40;7.50;;;14.00;99.90;;;;;;5079497;28;20046;-79
2023/08/27 06:10:11;;;;;;;8.02;6.93;;;14.10;99.90;;;;;;5077037;28;20044;-78
2023/08/27 06:12:36;;;;;;;12.45;7.30;;;14.10;99.90;;;;;;5076585;28;20048;-79
2023/08/27 06:15:04;;;;;;;8.98;8.05;;;14.10;99.90;;;;;;5081439;28;20044;-78
2023/08/27 06:17:30;;;;;;;10.30;7.55;;;14.10;99.90;;;;;;5068800;28;20043;-78
2023/08/27 06:19:55;;;;;;;10.45;7.47;;;14.10;99.90;;;;;;5076242;28;20230;-79
2023/08/27 06:22:21;;;;;;;7.78;6.97;;;14.10;99.90;;;;;;5075017;28;20028;-78
2023/08/27 06:24:46;;;;;;;10.32;7.47;;;14.20;99.90;;;;;;5084903;28;20071;-78
2023/08/27 06:27:14;;;;;;;8.48;7.20;;;14.20;99.90;;;;;;5073063;28;20038;-78
2023/08/27 06:29:42;;;;;;;8.63;7.05;;;14.20;99.90;;;;;;5071001;28;20166;-78
2023/08/27 06:32:08;;;;;;;11.57;7.18;;;14.20;99.90;;;;;;5072648;28;20506;-79
2023/08/27 06:34:34;;;;;;;7.53;6.72;;;14.20;99.90;;;;;;5075688;28;20059;-78
2023/08/27 06:36:59;;;;;;;8.45;6.78;;;14.20;99.90;;;;;;5073215;28;20036;-79
2023/08/27 06:39:25;;;;;;;8.77;7.20;;;14.20;99.90;;;;;;5074852;28;20128;-78
2023/08/27 06:41:50;;;;;;;8.02;6.78;;;14.20;99.90;;;;;;5074197;28;20116;-80
2023/08/27 06:44:16;;;;;;;8.07;6.30;;;14.20;99.90;;;;;;5075579;28;20059;-78
2023/08/27 06:46:41;;;;;;;10.48;6.72;;;14.20;99.90;;;;;;5074942;28;20043;-78
2023/08/27 06:49:07;;;;;;;7.72;6.82;;;14.20;99.90;;;;;;5075081;28;20039;-79
2023/08/27 06:51:32;;;;;;;8.27;6.32;;;14.20;99.90;;;;;;5075274;28;20075;-79
2023/08/27 06:53:58;;;;;;;9.50;6.53;;;14.20;99.90;;;;;;5074628;28;20036;-79
2023/08/27 06:56:23;;;;;;;8.50;6.50;;;14.30;99.90;;;;;;5074716;28;20048;-78
2023/08/27 06:58:49;;;;;;;7.43;6.10;;;14.30;99.90;;;;;;5062961;28;20028;-78
2023/08/27 07:01:14;;;;;;;8.93;6.38;;;14.40;99.90;;;;;;5069111;28;20093;-79
2023/08/27 07:03:40;;;;;;;9.45;6.18;;;14.40;99.90;;;;;;5072487;28;20040;-79
2023/08/27 07:06:05;;;;;;;7.40;5.70;;;14.40;99.90;;;;;;5074158;28;20419;-78
2023/08/27 07:08:31;;;;;;;9.32;6.00;;;14.40;99.90;;;;;;5074530;28;20036;-79
2023/08/27 07:10:57;;;;;;;6.65;5.75;;;14.40;99.90;;;;;;5067635;28;20039;-80
2023/08/27 07:13:22;;;;;;;8.35;6.43;;;14.50;99.90;;;;;;5074349;28;20032;-79
2023/08/27 07:15:48;;;;;;;8.63;5.70;;;14.50;99.90;;;;;;5074465;28;20120;-80
2023/08/27 07:18:15;;;;;;;8.23;5.60;;;14.50;99.90;;;;;;5074302;28;20129;-80
2023/08/27 07:20:40;;;;;;;6.30;4.95;;;14.50;99.90;;;;;;5074731;28;20113;-79
2023/08/27 07:23:06;;;;;;;6.40;4.68;;;14.50;99.90;;;;;;5074353;28;20062;-79
2023/08/27 07:25:33;;;;;;;5.75;4.68;;;14.60;99.90;;;;;;5074206;28;20044;-79
2023/08/27 07:27:59;;;;;;;5.93;4.32;;;14.60;99.90;;;;;;5074172;28;20046;-81
2023/08/27 07:30:24;;;;;;;9.50;4.22;;;14.70;99.90;;;;;;5074343;28;20057;-79
2023/08/27 07:32:51;;;;;;;5.55;4.45;;;14.80;99.90;;;;;;5073337;28;20047;-80
2023/08/27 07:35:17;;;;;;;5.72;4.38;;;14.80;99.90;;;;;;5072694;28;20067;-80
2023/08/27 07:37:43;;;;;;;6.95;4.22;;;14.90;99.90;;;;;;5075373;28;20027;-80
2023/08/27 07:40:11;;;;;;;7.85;4.68;;;15.00;99.90;;;;;;5073308;28;20090;-80
2023/08/27 07:42:37;;;;;;;5.60;4.15;;;15.00;99.90;;;;;;5068500;28;20032;-80
2023/08/27 07:45:03;;;;;;;5.50;4.00;;;15.00;99.90;;;;;;5073589;28;20043;-79
2023/08/27 07:47:29;;;;;;;6.75;4.38;;;14.90;99.90;;;;;;5073785;28;20117;-79
2023/08/27 07:49:54;;;;;;;7.00;3.90;;;14.90;99.90;;;;;;5074519;28;20047;-80
2023/08/27 07:52:20;;;;;;;6.20;3.83;;;14.80;99.90;;;;;;5090681;28;20061;-79
2023/08/27 07:54:45;;;;;;;6.78;3.75;;;14.80;99.90;;;;;;5068651;28;20032;-79
2023/08/27 07:57:11;;;;;;;6.68;4.18;;;14.80;99.90;;;;;;5072720;28;20116;-79
2023/08/27 07:59:37;;;;;;;6.43;4.13;;;14.80;99.90;;;;;;5072024;28;20472;-80
2023/08/27 08:02:03;;;;;;;6.47;3.92;;;14.70;99.90;;;;;;5085601;28;20052;-78
2023/08/27 08:04:28;;;;;;;5.18;3.88;;;14.90;99.90;;;;;;5071309;28;20078;-78
2023/08/27 08:06:54;;;;;;;6.78;4.00;;;15.10;99.90;;;;;;5072662;28;20044;-78
2023/08/27 08:09:19;;;;;;;5.90;4.10;;;15.40;99.90;;;;;;5074254;28;20044;-79
2023/08/27 08:11:45;;;;;;;4.75;3.33;;;15.70;99.90;;;;;;5073241;28;20074;-79
2023/08/27 08:14:10;;;;;;;5.63;3.50;;;16.00;99.90;;;;;;5055819;28;20032;-79
2023/08/27 08:16:36;;;;;;;6.68;3.40;;;16.30;99.90;;;;;;5072667;28;20044;-77
2023/08/27 08:19:02;;;;;;;7.15;3.50;;;16.60;99.90;;;;;;5093834;28;20503;-78
2023/08/27 08:21:27;;;;;;;4.45;3.13;;;16.80;99.90;;;;;;5091353;28;20040;-78
2023/08/27 08:23:53;;;;;;;4.75;3.38;;;16.90;99.90;;;;;;5071587;28;20044;-79
2023/08/27 08:26:18;;;;;;;4.72;3.10;;;17.00;99.90;;;;;;5066633;28;20036;-79
2023/08/27 08:28:44;;;;;;;6.20;3.33;;;17.10;99.90;;;;;;5066498;28;20047;-78
2023/08/27 08:31:09;;;;;;;4.05;3.00;;;17.10;99.90;;;;;;5074809;28;20098;-78
2023/08/27 08:33:35;;;;;;;5.18;3.10;;;17.10;99.90;;;;;;5070062;28;20042;-78
2023/08/27 08:36:00;;;;;;;4.00;2.70;;;17.20;99.90;;;;;;5083567;28;20085;-78
2023/08/27 08:38:26;;;;;;;4.85;2.60;;;17.30;99.90;;;;;;5071406;28;20024;-78
2023/08/27 08:40:57;;;;;;;4.40;2.97;;;17.50;99.90;;;;;;5072575;28;20203;-78
2023/08/27 08:43:42;;;;;;;4.95;2.67;;;17.70;99.90;;;;;;5074632;28;20047;-78
2023/08/27 08:46:09;;;;;;;4.75;2.80;;;17.70;99.90;;;;;;5083697;28;20040;-79
2023/08/27 08:48:40;;;;;;;5.10;2.72;;;17.60;99.90;;;;;;5088690;28;20051;-79
2023/08/27 08:51:10;;;;;;;4.80;2.90;;;17.70;99.90;;;;;;5095525;28;20043;-79
2023/08/27 08:53:41;;;;;;;4.47;2.60;;;17.90;99.90;;;;;;5068457;28;20044;-79
2023/08/27 08:56:11;;;;;;;3.97;2.42;;;17.90;99.90;;;;;;5069425;28;20104;-79
2023/08/27 08:58:41;;;;;;;4.55;2.40;;;17.90;99.90;;;;;;5070470;28;20487;-79
2023/08/27 09:01:07;;;;;;;4.30;2.30;;;18.00;99.90;;;;;;5072123;28;20114;-80
2023/08/27 09:03:36;;;;;;;6.43;2.50;;;18.10;99.90;;;;;;5070291;28;20036;-79
2023/08/27 09:06:02;;;;;;;5.10;2.40;;;18.20;99.90;;;;;;5077317;28;20048;-79
2023/08/27 09:08:30;;;;;;;3.83;2.20;;;18.10;99.90;;;;;;5071161;28;20040;-79
2023/08/27 09:10:56;;;;;;;3.17;1.98;;;18.10;99.90;;;;;;5071793;28;20387;-79
2023/08/27 09:13:22;;;;;;;3.25;2.10;;;18.00;99.90;;;;;;5072287;28;20040;-78
2023/08/27 09:15:51;;;;;;;3.22;1.92;;;18.00;99.90;;;;;;5075449;28;20418;-79
2023/08/27 09:18:16;;;;;;;4.15;1.60;;;18.00;99.90;;;;;;5078760;28;20032;-79
2023/08/27 09:20:45;;;;;;;5.47;1.90;;;18.20;99.90;;;;;;5075186;28;20491;-79
2023/08/27 09:23:13;;;;;;;4.50;1.95;;;18.30;99.90;;;;;;5063839;28;20078;-80
2023/08/27 09:25:39;;;;;;;4.90;2.50;;;18.40;99.90;;;;;;5072720;28;20054;-78
2023/08/27 09:28:05;;;;;;;3.30;2.03;;;18.50;99.90;;;;;;5077215;28;20063;-80
2023/08/27 09:30:31;;;;;;;3.33;2.17;;;18.50;99.90;;;;;;5084487;28;20043;-79
2023/08/27 09:32:57;;;;;;;4.63;2.13;;;18.50;99.90;;;;;;5080539;28;20115;-79
2023/08/27 09:35:23;;;;;;;3.20;2.10;;;18.50;99.90;;;;;;5076899;28;20439;-78
2023/08/27 09:37:49;;;;;;;5.20;2.20;;;18.60;99.90;;;;;;5071611;28;20063;-79
2023/08/27 09:40:18;;;;;;;2.63;1.98;;;18.60;99.90;;;;;;5059762;28;20119;-79
2023/08/27 09:42:44;;;;;;;4.82;1.92;;;18.70;99.90;;;;;;5077675;28;20036;-80
2023/08/27 09:45:09;;;;;;;2.63;1.60;;;18.80;99.90;;;;;;5074538;28;20119;-80
2023/08/27 09:47:38;;;;;;;3.22;2.10;;;19.00;99.90;;;;;;5072943;28;20578;-78
2023/08/27 09:50:06;;;;;;;5.70;2.42;;;19.10;99.90;;;;;;5067543;28;20044;-80
2023/08/27 09:52:32;;;;;;;4.10;1.80;;;19.20;99.90;;;;;;5073658;28;20131;-80
2023/08/27 09:54:58;;;;;;;3.92;2.00;;;19.40;99.90;;;;;;5064101;28;20500;-81
2023/08/27 09:57:23;;;;;;;4.07;1.77;;;19.40;99.90;;;;;;5048064;28;20100;-79
2023/08/27 09:59:49;;;;;;;3.75;1.95;;;19.40;99.90;;;;;;5067305;28;20032;-80
2023/08/27 10:02:15;;;;;;;3.25;1.70;;;19.50;99.90;;;;;;5076935;28;20047;-80
2023/08/27 10:04:56;;;;;;;2.38;1.30;;;19.40;99.90;;;;;;5074277;28;20052;-80
2023/08/27 10:07:22;;;;;;;4.28;1.70;;;19.40;99.90;;;;;;5065172;28;20044;-80
2023/08/27 10:09:50;;;;;;;2.65;1.60;;;19.50;99.90;;;;;;5065517;28;20041;-80
2023/08/27 10:12:16;;;;;;;3.15;1.30;;;19.60;99.90;;;;;;5075795;28;20044;-80
2023/08/27 10:14:44;;;;;;;7.43;3.15;;;19.80;99.90;;;;;;5057682;28;20044;-80
2023/08/27 10:17:10;;;;;;;4.75;1.98;;;19.90;99.90;;;;;;5063432;28;20033;-80
2023/08/27 10:19:36;;;;;;;2.25;1.50;;;20.00;99.90;;;;;;5072063;28;20040;-80
2023/08/27 10:22:03;;;;;;;2.88;1.92;;;20.10;99.90;;;;;;5076067;28;20119;-81
2023/08/27 10:24:29;;;;;;;2.38;1.70;;;20.00;99.90;;;;;;5074772;28;20056;-80
2023/08/27 10:26:58;;;;;;;3.33;1.55;;;19.90;99.90;;;;;;5074078;28;20126;-79
2023/08/27 10:29:24;;;;;;;2.38;1.50;;;20.00;99.90;;;;;;5078380;28;20059;-80
2023/08/27 10:31:51;;;;;;;3.08;1.65;;;20.10;99.90;;;;;;5064763;28;20574;-79
2023/08/27 10:34:17;;;;;;;2.60;1.35;;;20.20;99.90;;;;;;5067489;28;20043;-81
2023/08/27 10:36:44;;;;;;;2.03;1.45;;;20.20;99.90;;;;;;5073431;28;20112;-81
2023/08/27 10:39:11;;;;;;;2.88;1.48;;;20.10;99.90;;;;;;5051014;28;20062;-79
2023/08/27 10:41:37;;;;;;;10.18;2.65;;;20.20;99.90;;;;;;5085235;28;20525;-78
2023/08/27 10:44:03;;;;;;;6.55;1.60;;;20.40;99.90;;;;;;5072642;28;20035;-80
2023/08/27 10:46:29;;;;;;;2.15;1.50;;;20.70;99.90;;;;;;5076996;28;20040;-77
2023/08/27 10:48:54;;;;;;;2.47;1.60;;;20.70;99.90;;;;;;5075285;28;20040;-78
2023/08/27 10:51:27;;;;;;;4.75;1.70;;;20.70;99.90;;;;;;5067506;28;21156;-77
2023/08/27 10:53:54;;;;;;;3.60;1.98;;;20.60;99.90;;;;;;5074858;28;20046;-79
2023/08/27 10:56:38;;;;;;;4.50;2.30;;;20.30;99.90;;;;;;5074141;28;20038;-79
2023/08/27 10:59:09;;;;;;;3.95;2.25;;;20.00;99.90;;;;;;5058009;28;20047;-79
2023/08/27 11:01:53;;;;;;;4.93;2.50;;;19.80;99.90;;;;;;5074999;28;20028;-79
2023/08/27 11:04:19;;;;;;;3.10;2.13;;;19.50;99.90;;;;;;5072997;28;20181;-79
2023/08/27 11:06:46;;;;;;;4.07;2.28;;;19.20;99.90;;;;;;5073030;28;20140;-79
2023/08/27 11:09:27;;;;;;;3.92;2.10;;;19.10;99.90;;;;;;5073845;28;20457;-80
2023/08/27 11:12:03;;;;;;;5.20;2.60;;;18.90;99.90;;;;;;5073075;28;20040;-80
2023/08/27 11:14:35;;;;;;;2.97;2.42;;;18.60;99.90;;;;;;5074706;28;20080;-80
2023/08/27 11:17:03;;;;;;;5.38;2.70;;;18.50;99.90;;;;;;5074781;28;20118;-79
2023/08/27 11:19:31;;;;;;;5.10;2.70;;;18.50;99.90;;;;;;5090093;28;20527;-80
2023/08/27 11:22:14;;;;;;;4.50;2.80;;;18.60;99.90;;;;;;5072683;28;20037;-80
2023/08/27 11:24:45;;;;;;;3.78;2.65;;;18.80;99.90;;;;;;5068942;28;20036;-79
2023/08/27 11:27:13;;;;;;;3.42;2.65;;;19.20;99.90;;;;;;5067229;28;20063;-79
2023/08/27 11:29:40;;;;;;;3.42;2.50;;;19.60;99.90;;;;;;5089425;28;20600;-78
2023/08/27 11:32:09;;;;;;;4.10;2.42;;;19.70;99.90;;;;;;5079476;28;20035;-79
2023/08/27 11:34:36;;;;;;;4.70;2.30;;;19.80;99.90;;;;;;5076068;28;20654;-79
2023/08/27 11:37:04;;;;;;;3.50;2.67;;;19.90;99.90;;;;;;5078629;28;20104;-78
2023/08/27 11:39:29;;;;;;;2.40;2.00;;;20.00;99.90;;;;;;5070317;28;20046;-79
2023/08/27 11:41:56;;;;;;;4.63;2.50;;;19.90;99.90;;;;;;5071534;28;20024;-78
2023/08/27 11:44:21;;;;;;;5.75;2.15;;;19.80;99.90;;;;;;5069903;28;20584;-80
2023/08/27 11:46:47;;;;;;;2.67;1.50;;;19.60;99.90;;;;;;5069167;28;20043;-79
2023/08/27 11:49:14;;;;;;;2.58;1.70;;;19.50;99.90;;;;;;5075408;28;20040;-79
2023/08/27 11:51:41;;;;;;;2.65;1.60;;;19.50;99.90;;;;;;5072529;28;20119;-79
2023/08/27 11:54:07;;;;;;;4.57;2.00;;;19.70;99.90;;;;;;5079249;28;20123;-79
2023/08/27 11:56:37;;;;;;;3.35;2.40;;;19.80;99.90;;;;;;5073709;28;20038;-79
2023/08/27 11:59:06;;;;;;;5.15;2.38;;;19.80;99.90;;;;;;5074320;28;20085;-79
2023/08/27 12:01:33;;;;;;;3.70;2.70;;;19.90;99.90;;;;;;5057523;28;20721;-79
2023/08/27 12:03:59;;;;;;;5.40;2.90;;;19.90;99.90;;;;;;5073419;28;20084;-80
2023/08/27 12:06:26;;;;;;;3.58;2.45;;;19.80;99.90;;;;;;5076127;28;20040;-78
2023/08/27 12:08:53;;;;;;;2.78;1.75;;;19.60;99.90;;;;;;5078754;28;20048;-77
2023/08/27 12:11:27;;;;;;;2.63;1.10;;;19.10;99.90;;;;;;5073515;28;20036;-77
2023/08/27 12:13:57;;;;;;;2.90;1.00;;;18.40;99.90;;;;;;5074812;28;20499;-77
2023/08/27 12:16:29;;;;;;;2.88;1.30;;;17.90;99.90;;;;;;5069348;28;20040;-77
2023/08/27 12:19:08;;;;;;;2.53;0.90;;;17.50;99.90;;;;;;5068540;28;20032;-77
2023/08/27 12:21:55;;;;;;;1.60;0.63;;;17.30;99.90;;;;;;5065909;28;20043;-78
2023/08/27 12:24:43;;;;;;;1.52;0.75;;;16.90;99.90;;;;;;5071836;28;20471;-78
2023/08/27 12:27:20;;;;;;;2.15;0.80;;;16.80;99.90;;;;;;5074171;28;20105;-78
2023/08/27 12:29:46;;;;;;;1.95;1.00;;;16.60;99.90;;;;;;5074458;28;20082;-78
2023/08/27 12:32:21;;;;;;;2.42;0.70;;;16.50;99.90;;;;;;5070970;28;20036;-78
2023/08/27 12:34:49;;;;;;;2.30;0.60;;;16.60;99.90;;;;;;5086850;28;20047;-79
2023/08/27 12:37:17;;;;;;;1.75;0.60;;;16.70;99.90;;;;;;5071329;28;20491;-79
2023/08/27 12:39:44;;;;;;;2.70;0.70;;;16.80;99.90;;;;;;5061878;28;20071;-79
2023/08/27 12:42:11;;;;;;;3.63;0.73;;;16.80;99.90;;;;;;5067052;28;20055;-78
2023/08/27 12:44:37;;;;;;;2.78;0.75;;;16.90;99.90;;;;;;5070409;28;20110;-79